Time;durP1;ratioP1;P1;durP2;ratioP2;P2;SDS_P1;SDS_P2;PMS_P1;PMS_P2;Temp;Humidity;BMP_temperature;BMP_pressure;BME280_temperature;BME280_humidity;BME280_pressure;Samples;Min_cycle;Max_cycle;Signal;HPM_P1;HPM_P2
2021/04/13 00:01:21;;;;;;;35.20;22.80;;;0.90;72.90;;;;;;4995914;28;20174;-88
2021/04/13 00:04:03;;;;;;;29.30;20.83;;;0.90;73.40;;;;;;4995125;28;20232;-89
2021/04/13 00:06:37;;;;;;;33.85;21.05;;;1.10;72.90;;;;;;4995336;28;20232;-88
2021/04/13 00:09:11;;;;;;;35.90;23.85;;;1.20;72.10;;;;;;4995171;28;20175;-88
2021/04/13 00:11:37;;;;;;;41.58;25.02;;;1.10;71.60;;;;;;4996558;28;20216;-88
2021/04/13 00:14:06;;;;;;;38.85;25.30;;;1.00;72.10;;;;;;4996207;28;20267;-88
2021/04/13 00:16:34;;;;;;;36.67;24.75;;;0.90;72.40;;;;;;4996634;28;20165;-89
2021/04/13 00:19:00;;;;;;;50.20;28.73;;;0.90;72.40;;;;;;4995370;28;20219;-88
2021/04/13 00:21:34;;;;;;;44.40;26.30;;;0.70;73.00;;;;;;4995096;28;20181;-89
2021/04/13 00:24:05;;;;;;;43.33;26.30;;;0.70;73.00;;;;;;4996033;28;20391;-89
2021/04/13 00:26:31;;;;;;;46.20;27.15;;;0.70;73.60;;;;;;4996096;28;20177;-89
2021/04/13 00:29:00;;;;;;;39.92;24.38;;;0.80;74.00;;;;;;4995827;28;20172;-89
2021/04/13 00:31:44;;;;;;;38.05;24.20;;;0.70;74.10;;;;;;4994278;28;20675;-88
2021/04/13 00:34:12;;;;;;;47.55;26.88;;;0.80;73.50;;;;;;4994641;28;20176;-89
2021/04/13 00:36:38;;;;;;;41.30;25.70;;;0.80;73.20;;;;;;4995941;28;20225;-89
2021/04/13 00:39:18;;;;;;;44.60;29.00;;;0.70;73.40;;;;;;4994281;28;20169;-89
2021/04/13 00:41:47;;;;;;;49.25;28.58;;;0.70;73.50;;;;;;4994747;28;20446;-88
2021/04/13 00:44:13;;;;;;;46.85;26.75;;;0.60;73.50;;;;;;4996152;28;20169;-89
2021/04/13 00:46:55;;;;;;;46.70;26.15;;;0.70;73.90;;;;;;4996676;28;20280;-89
2021/04/13 00:49:25;;;;;;;41.35;26.15;;;0.80;73.40;;;;;;4995429;28;20205;-88
2021/04/13 00:52:03;;;;;;;39.15;25.10;;;0.80;73.00;;;;;;4994568;28;20205;-88
2021/04/13 00:54:35;;;;;;;34.58;23.85;;;1.90;75.10;;;;;;4994710;28;20651;-88
2021/04/13 00:57:19;;;;;;;40.70;25.40;;;0.70;73.50;;;;;;4994568;28;20526;-88
2021/04/13 00:59:47;;;;;;;37.70;23.90;;;0.80;72.50;;;;;;4995880;28;20174;-89
2021/04/13 01:02:18;;;;;;;38.30;23.92;;;0.50;72.90;;;;;;4995642;28;20174;-88
2021/04/13 01:04:53;;;;;;;42.95;25.85;;;0.60;73.30;;;;;;4994634;28;20169;-88
2021/04/13 01:07:37;;;;;;;41.35;26.70;;;0.50;73.30;;;;;;4994397;28;20173;-88
2021/04/13 01:10:10;;;;;;;43.03;26.83;;;0.60;73.50;;;;;;4995219;28;20174;-88
2021/04/13 01:12:40;;;;;;;38.40;24.88;;;0.60;73.50;;;;;;4995936;28;20242;-88
2021/04/13 01:15:09;;;;;;;36.67;23.05;;;0.60;72.80;;;;;;4995585;28;20227;-88
2021/04/13 01:17:37;;;;;;;26.77;18.40;;;0.70;72.50;;;;;;4996519;28;20185;-89
2021/04/13 01:20:33;;;;;;;31.42;19.83;;;0.70;91.10;;;;;;4994694;28;20679;-89
2021/04/13 01:25:39;;;;;;;38.90;24.65;;;0.50;71.70;;;;;;4995817;28;20240;-88
2021/04/13 01:28:16;;;;;;;48.63;27.27;;;0.40;71.50;;;;;;4996446;28;20261;-87
2021/04/13 01:30:49;;;;;;;43.13;25.65;;;0.30;72.30;;;;;;4998302;28;20216;-88
2021/04/13 01:33:33;;;;;;;47.42;27.38;;;0.20;73.10;;;;;;4997902;28;20731;-88
2021/04/13 01:36:00;;;;;;;53.63;28.75;;;0.20;73.50;;;;;;4996751;28;20633;-88
2021/04/13 01:38:41;;;;;;;47.35;28.40;;;0.20;73.90;;;;;;4996117;28;20656;-88
2021/04/13 01:43:45;;;;;;;47.90;27.58;;;0.20;73.20;;;;;;4996170;28;20648;-88
2021/04/13 01:46:11;;;;;;;49.33;28.35;;;0.10;73.60;;;;;;4995707;28;20572;-88
2021/04/13 01:48:38;;;;;;;44.42;27.15;;;0.10;75.00;;;;;;4994711;28;20184;-88
2021/04/13 01:51:07;;;;;;;41.83;23.38;;;0.60;75.00;;;;;;4996782;28;20256;-89
2021/04/13 01:53:38;;;;;;;36.78;23.50;;;0.30;74.70;;;;;;4996558;28;20173;-88
2021/04/13 01:56:09;;;;;;;37.05;24.75;;;0.20;73.60;;;;;;4995545;28;20169;-88
2021/04/13 01:58:45;;;;;;;34.33;23.90;;;0.30;91.20;;;;;;4996500;28;20174;-88
2021/04/13 02:01:30;;;;;;;39.92;24.90;;;0.20;73.00;;;;;;5001918;28;20172;-87
2021/04/13 02:04:22;;;;;;;25.27;19.45;;;0.20;72.90;;;;;;4998392;28;20165;-87
2021/04/13 02:07:00;;;;;;;35.67;22.70;;;0.20;72.70;;;;;;4997021;28;20613;-87
2021/04/13 02:12:00;;;;;;;35.95;23.48;;;0.00;73.20;;;;;;4997115;28;20205;-88
2021/04/13 02:14:30;;;;;;;37.88;24.80;;;0.20;73.00;;;;;;4996150;28;20225;-87
2021/04/13 02:17:10;;;;;;;42.10;24.63;;;0.00;73.30;;;;;;4998781;28;20181;-87
2021/04/13 02:19:37;;;;;;;40.75;26.85;;;-0.10;91.10;;;;;;4998391;28;20188;-87
2021/04/13 02:22:11;;;;;;;46.45;27.02;;;0.00;73.60;;;;;;5002044;28;20196;-87
2021/04/13 02:24:38;;;;;;;41.25;24.63;;;0.00;73.60;;;;;;4999040;28;20642;-87
2021/04/13 02:27:10;;;;;;;38.83;23.38;;;0.10;73.90;;;;;;4996388;28;20180;-89
2021/04/13 02:29:40;;;;;;;38.25;23.73;;;-0.30;73.30;;;;;;4998294;28;20201;-87
2021/04/13 02:32:21;;;;;;;39.15;25.55;;;0.10;73.50;;;;;;5000797;28;20270;-87
2021/04/13 02:35:03;;;;;;;35.80;23.70;;;0.20;73.60;;;;;;5001764;28;20166;-87
2021/04/13 02:37:41;;;;;;;42.60;25.83;;;1.00;74.10;;;;;;5000630;28;20184;-87
2021/04/13 02:40:12;;;;;;;44.25;25.38;;;0.00;72.90;;;;;;5000002;28;20173;-87
2021/04/13 02:42:47;;;;;;;40.55;26.17;;;-0.10;73.80;;;;;;5001226;28;20165;-88
2021/04/13 02:45:29;;;;;;;45.08;27.98;;;-0.10;73.90;;;;;;5001357;28;20694;-87
2021/04/13 02:48:17;;;;;;;43.83;24.50;;;-0.10;73.60;;;;;;5002628;28;20691;-87
2021/04/13 02:50:48;;;;;;;38.38;25.83;;;-0.20;91.80;;;;;;4999997;28;20197;-87
2021/04/13 02:53:22;;;;;;;39.35;26.35;;;-0.20;73.50;;;;;;4999495;28;20269;-88
2021/04/13 02:55:54;;;;;;;47.65;27.63;;;-0.20;73.90;;;;;;5001086;28;20194;-88
2021/04/13 02:58:23;;;;;;;46.90;29.00;;;-0.30;74.20;;;;;;5002178;28;20519;-88
2021/04/13 03:00:52;;;;;;;45.60;26.15;;;-0.30;74.20;;;;;;5003317;28;20165;-87
2021/04/13 03:03:31;;;;;;;46.85;27.33;;;-0.30;74.20;;;;;;5002086;28;20223;-88
2021/04/13 03:05:58;;;;;;;46.63;27.55;;;0.40;74.70;;;;;;5001545;28;20177;-86
2021/04/13 03:08:27;;;;;;;52.30;27.98;;;-0.20;73.90;;;;;;5000099;28;20233;-87
2021/04/13 03:10:57;;;;;;;39.72;25.00;;;-0.10;73.30;;;;;;4999672;28;20213;-87
2021/04/13 03:13:27;;;;;;;43.58;24.42;;;-0.30;73.70;;;;;;4999385;28;20224;-88
2021/04/13 03:15:57;;;;;;;42.33;26.55;;;2.40;76.90;;;;;;5000235;28;20670;-88
2021/04/13 03:18:29;;;;;;;35.72;22.95;;;-0.40;73.10;;;;;;5000922;28;20688;-87
2021/04/13 03:21:00;;;;;;;40.97;25.20;;;-0.20;92.00;;;;;;5000049;28;20629;-88
2021/04/13 03:23:29;;;;;;;38.47;25.85;;;-0.30;73.00;;;;;;4999876;28;20229;-87
2021/04/13 03:25:58;;;;;;;40.95;24.48;;;-0.10;92.10;;;;;;4999147;28;20170;-88
2021/04/13 03:28:39;;;;;;;39.60;24.85;;;-0.30;73.20;;;;;;4999367;28;20181;-88
2021/04/13 03:31:05;;;;;;;37.75;24.25;;;-0.20;73.30;;;;;;5002278;28;20212;-88
2021/04/13 03:33:35;;;;;;;44.05;26.35;;;-0.30;73.20;;;;;;5002805;28;20169;-88
2021/04/13 03:36:08;;;;;;;47.53;27.98;;;-0.40;73.40;;;;;;5002660;28;20170;-88
2021/04/13 03:38:36;;;;;;;42.08;25.63;;;-0.30;91.90;;;;;;5002203;28;20220;-89
2021/04/13 03:41:03;;;;;;;37.63;25.60;;;-0.30;74.40;;;;;;5000914;28;20558;-87
2021/04/13 03:43:31;;;;;;;49.47;27.33;;;-0.10;74.00;;;;;;5001510;28;20174;-88
2021/04/13 03:46:02;;;;;;;51.75;28.98;;;-0.20;73.70;;;;;;5000948;28;20192;-88
2021/04/13 03:48:30;;;;;;;44.60;26.27;;;-0.30;73.50;;;;;;5000368;28;20200;-89
2021/04/13 03:51:06;;;;;;;46.38;27.70;;;-0.30;74.00;;;;;;5000358;28;20292;-88
2021/04/13 03:53:41;;;;;;;48.90;27.48;;;-0.30;91.60;;;;;;5002070;28;20173;-88
2021/04/13 03:56:10;;;;;;;51.65;29.15;;;-0.30;74.50;;;;;;5003145;28;20252;-86
2021/04/13 03:58:47;;;;;;;46.90;26.38;;;-0.30;74.40;;;;;;5000497;28;20640;-87
2021/04/13 04:01:18;;;;;;;41.00;24.70;;;-0.20;74.60;;;;;;5000608;28;20224;-87
2021/04/13 04:03:51;;;;;;;39.22;23.77;;;-0.20;73.50;;;;;;5000911;28;20181;-87
2021/04/13 04:06:45;;;;;;;40.50;25.83;;;-0.20;73.80;;;;;;5003950;28;20172;-88
2021/04/13 04:09:18;;;;;;;31.63;23.33;;;-0.10;72.90;;;;;;5003107;28;20216;-87
2021/04/13 04:11:44;;;;;;;38.25;26.08;;;-0.20;73.00;;;;;;5008912;28;20213;-88
2021/04/13 04:14:22;;;;;;;41.33;26.80;;;-0.20;73.00;;;;;;5005500;28;20639;-87
2021/04/13 04:16:48;;;;;;;39.72;23.70;;;-0.30;73.30;;;;;;5008865;28;20180;-88
2021/04/13 04:19:22;;;;;;;35.67;23.80;;;-0.10;92.00;;;;;;5009530;28;20181;-87
2021/04/13 04:22:20;;;;;;;40.05;24.33;;;-0.40;73.70;;;;;;5003900;28;20172;-87
2021/04/13 04:24:46;;;;;;;35.10;23.40;;;-0.40;73.90;;;;;;5002394;28;20541;-87
2021/04/13 04:27:15;;;;;;;37.97;24.17;;;-0.50;74.10;;;;;;5004671;28;20169;-88
2021/04/13 04:29:42;;;;;;;42.42;27.38;;;-0.50;73.90;;;;;;5004814;28;20173;-87
2021/04/13 04:32:17;;;;;;;45.33;27.63;;;-0.40;74.40;;;;;;5005078;28;20204;-86
2021/04/13 04:34:45;;;;;;;39.60;25.95;;;-0.70;73.60;;;;;;5005316;28;20671;-88
2021/04/13 04:37:22;;;;;;;40.90;25.55;;;-0.40;74.10;;;;;;5005291;28;20173;-88
2021/04/13 04:40:35;;;;;;;44.13;25.63;;;-0.30;74.00;;;;;;5003471;28;20158;-88
2021/04/13 04:43:14;;;;;;;36.72;24.55;;;-0.20;92.20;;;;;;5005921;28;20169;-86
2021/04/13 04:45:42;;;;;;;40.78;26.85;;;-0.30;73.70;;;;;;5003586;28;20652;-87
2021/04/13 04:48:38;;;;;;;37.80;25.10;;;-0.30;73.80;;;;;;5002714;28;20272;-88
2021/04/13 04:51:12;;;;;;;36.40;24.30;;;-0.30;74.00;;;;;;5002996;28;20213;-86
2021/04/13 04:53:40;;;;;;;36.95;23.15;;;-0.30;90.70;;;;;;5004438;28;20162;-87
2021/04/13 04:56:12;;;;;;;33.75;23.05;;;-0.30;73.80;;;;;;5004535;28;20209;-87
2021/04/13 04:58:38;;;;;;;34.00;21.70;;;-0.20;74.20;;;;;;5006100;28;20201;-88
2021/04/13 05:01:06;;;;;;;37.97;24.95;;;-0.30;74.60;;;;;;5003892;28;20231;-88
2021/04/13 05:03:31;;;;;;;30.75;21.30;;;0.10;91.70;;;;;;5004386;28;20203;-88
2021/04/13 05:05:59;;;;;;;35.97;23.47;;;-0.40;74.60;;;;;;5006457;28;20252;-87
2021/04/13 05:08:25;;;;;;;34.60;21.00;;;0.10;75.40;;;;;;5005723;28;20177;-87
2021/04/13 05:10:51;;;;;;;33.33;21.50;;;0.10;75.70;;;;;;5008114;28;20208;-87
2021/04/13 05:13:19;;;;;;;25.83;19.00;;;0.10;75.40;;;;;;5005232;28;20244;-87
2021/04/13 05:15:44;;;;;;;29.42;19.48;;;0.40;76.00;;;;;;5001309;28;20692;-86
2021/04/13 05:18:13;;;;;;;22.70;19.33;;;0.40;75.20;;;;;;5002659;28;20199;-87
2021/04/13 05:20:41;;;;;;;26.73;20.70;;;1.10;76.60;;;;;;5002219;28;20438;-87
2021/04/13 05:23:07;;;;;;;27.30;18.27;;;0.60;74.20;;;;;;4650952;28;10000012;-86
2021/04/13 05:25:35;;;;;;;26.33;21.80;;;0.80;92.40;;;;;;4983948;28;20197;-87
2021/04/13 05:28:01;;;;;;;25.98;18.98;;;0.70;74.80;;;;;;4982240;28;20179;-87
2021/04/13 05:30:48;;;;;;;25.50;20.00;;;1.10;91.80;;;;;;4982531;28;20209;-87
2021/04/13 05:33:14;;;;;;;33.80;22.35;;;;;;;;;;4981825;28;20184;-88
2021/04/13 05:35:43;;;;;;;22.38;18.75;;;1.00;72.90;;;;;;4982997;28;20202;-87
2021/04/13 05:38:35;;;;;;;30.08;20.55;;;0.00;77.10;;;;;;4983301;28;20186;-86
2021/04/13 05:41:06;;;;;;;22.45;19.13;;;1.10;73.30;;;;;;4981673;28;20281;-87
2021/04/13 05:43:34;;;;;;;26.67;20.08;;;1.80;74.80;;;;;;4987965;28;20177;-89
2021/04/13 05:46:01;;;;;;;32.80;22.05;;;1.00;91.40;;;;;;4988409;28;20177;-85
2021/04/13 05:48:35;;;;;;;25.13;21.10;;;0.90;74.20;;;;;;4992706;28;20174;-89
2021/04/13 05:51:03;;;;;;;25.52;18.73;;;0.50;76.70;;;;;;4992727;28;20218;-88
2021/04/13 05:53:29;;;;;;;26.33;19.50;;;1.10;78.50;;;;;;4994208;28;20198;-86
2021/04/13 05:55:57;;;;;;;24.00;20.30;;;;;;;;;;4994119;28;20178;-86
2021/04/13 05:58:58;;;;;;;26.10;18.48;;;1.60;72.70;;;;;;4990737;28;20177;-88
2021/04/13 06:02:11;;;;;;;21.83;17.70;;;1.60;87.50;;;;;;5014774;28;20203;-89
2021/04/13 06:04:58;;;;;;;22.20;18.70;;;1.90;87.10;;;;;;5014728;28;20165;-88
2021/04/13 06:07:54;;;;;;;23.92;18.05;;;-0.10;73.20;;;;;;5023386;28;20196;-89
2021/04/13 06:10:45;;;;;;;25.38;18.52;;;2.00;90.40;;;;;;4999582;28;20646;-89
2021/04/13 06:13:26;;;;;;;20.75;16.80;;;2.10;86.20;;;;;;5014060;28;20229;-88
2021/04/13 06:16:05;;;;;;;22.90;19.17;;;2.50;73.10;;;;;;5014196;28;20237;-87
2021/04/13 06:18:36;;;;;;;22.48;19.30;;;3.90;75.20;;;;;;5003618;28;20160;-89
2021/04/13 06:24:42;;;;;;;21.52;18.35;;;2.60;71.40;;;;;;5250674;23;20262;-87
2021/04/13 06:27:16;;;;;;;17.88;15.90;;;2.20;73.90;;;;;;5036590;28;20168;-87
2021/04/13 06:29:49;;;;;;;19.50;17.40;;;2.40;72.30;;;;;;5031832;28;20180;-89
2021/04/13 06:32:16;;;;;;;18.33;16.23;;;;;;;;;;5052537;28;20203;-87
2021/04/13 06:34:41;;;;;;;19.27;15.25;;;3.80;90.10;;;;;;5052380;28;20180;-91
2021/04/13 06:37:09;;;;;;;18.03;14.20;;;4.00;82.60;;;;;;5050650;28;20233;-89
2021/04/13 06:39:38;;;;;;;16.02;14.43;;;4.50;84.90;;;;;;5048979;28;20166;-89
2021/04/13 06:42:43;;;;;;;17.90;14.77;;;6.20;74.60;;;;;;5049778;28;20203;-90
2021/04/13 06:45:32;;;;;;;17.08;14.15;;;4.50;75.30;;;;;;5054136;28;20214;-91
2021/04/13 06:48:00;;;;;;;16.48;14.48;;;7.30;66.90;;;;;;5051904;28;20167;-89
2021/04/13 06:50:44;;;;;;;19.85;15.27;;;5.50;63.40;;;;;;5072244;28;20211;-89
2021/04/13 06:53:46;;;;;;;14.27;12.95;;;5.20;60.50;;;;;;5054290;28;20212;-88
2021/04/13 06:56:26;;;;;;;14.25;11.40;;;4.70;60.50;;;;;;5039246;28;20171;-89
2021/04/13 06:59:07;;;;;;;13.05;11.68;;;6.30;60.70;;;;;;5050684;28;20179;-89
2021/04/13 07:01:43;;;;;;;12.30;11.20;;;6.10;58.60;;;;;;5035623;28;20646;-87
2021/04/13 07:04:23;;;;;;;11.15;9.90;;;7.40;56.60;;;;;;5052382;28;20242;-89
2021/04/13 07:06:58;;;;;;;10.43;8.90;;;8.00;55.20;;;;;;5051678;28;20168;-86
2021/04/13 07:09:29;;;;;;;9.63;8.60;;;9.00;54.60;;;;;;5034801;28;20421;-86
2021/04/13 07:12:07;;;;;;;9.50;8.70;;;9.20;51.70;;;;;;5051381;28;20893;-87
2021/04/13 07:15:00;;;;;;;10.23;9.40;;;10.00;49.10;;;;;;5052364;28;20402;-88
2021/04/13 07:17:43;;;;;;;9.70;8.70;;;10.20;48.00;;;;;;5034243;28;20411;-88
2021/04/13 07:20:18;;;;;;;9.47;8.70;;;10.70;47.50;;;;;;5034671;28;20440;-86
2021/04/13 07:22:55;;;;;;;10.10;9.20;;;11.10;46.30;;;;;;5033677;28;20410;-87
2021/04/13 07:25:26;;;;;;;9.07;8.20;;;11.60;44.90;;;;;;5035003;28;20561;-87
2021/04/13 07:27:54;;;;;;;9.90;9.10;;;11.20;44.30;;;;;;5034332;28;20481;-87
2021/04/13 07:30:49;;;;;;;9.13;8.43;;;12.00;44.70;;;;;;5034347;28;20456;-88
2021/04/13 07:33:24;;;;;;;10.13;9.10;;;12.40;44.30;;;;;;5022004;28;20560;-88
2021/04/13 07:35:54;;;;;;;10.23;9.33;;;13.50;44.50;;;;;;5032942;28;20445;-88
2021/04/13 07:38:24;;;;;;;11.27;10.23;;;12.30;43.60;;;;;;5019363;28;20946;-86
2021/04/13 07:41:25;;;;;;;10.40;9.50;;;12.10;44.20;;;;;;5017039;28;20740;-87
2021/04/13 07:44:17;;;;;;;10.60;9.60;;;12.10;44.20;;;;;;5015642;28;20473;-88
2021/04/13 07:47:04;;;;;;;8.90;8.17;;;12.20;44.10;;;;;;5017199;28;20408;-87
2021/04/13 07:49:39;;;;;;;9.13;8.30;;;12.50;43.80;;;;;;5019437;28;20416;-86
2021/04/13 07:52:14;;;;;;;11.17;8.90;;;12.90;42.50;;;;;;5034404;28;20477;-88
2021/04/13 07:55:15;;;;;;;12.03;9.43;;;14.00;41.60;;;;;;5033237;28;20826;-87
2021/04/13 07:57:43;;;;;;;10.90;9.17;;;15.90;41.90;;;;;;4997348;28;20432;-87
2021/04/13 08:00:12;;;;;;;12.03;9.70;;;14.20;40.50;;;;;;5012351;28;20737;-89
2021/04/13 08:02:37;;;;;;;10.47;9.30;;;13.80;40.80;;;;;;5019725;28;20447;-88
2021/04/13 08:05:07;;;;;;;16.97;9.10;;;11.70;40.00;;;;;;5019295;28;20768;-89
2021/04/13 08:07:38;;;;;;;12.80;9.63;;;12.80;42.50;;;;;;5019296;28;20164;-89
2021/04/13 08:10:26;;;;;;;15.30;9.00;;;12.00;43.80;;;;;;5017999;28;20420;-90
2021/04/13 08:13:01;;;;;;;10.07;8.87;;;11.20;45.00;;;;;;5018544;28;20451;-87
2021/04/13 08:15:40;;;;;;;15.17;8.70;;;10.80;46.10;;;;;;5018226;28;20431;-88
2021/04/13 08:18:08;;;;;;;10.67;8.10;;;11.00;46.60;;;;;;5023568;28;20408;-89
2021/04/13 08:20:44;;;;;;;9.70;8.30;;;11.60;45.30;;;;;;5039089;28;20424;-91
2021/04/13 08:23:36;;;;;;;10.10;9.20;;;13.30;45.80;;;;;;5041302;28;20408;-88
2021/04/13 08:26:31;;;;;;;10.17;8.43;;;11.60;43.90;;;;;;5019250;28;20424;-88
2021/04/13 08:29:15;;;;;;;15.80;9.50;;;12.60;44.10;;;;;;5028866;28;20548;-89
2021/04/13 08:33:02;;;;;;;10.10;9.07;;;12.80;43.90;;;;;;5038287;28;20466;-86
2021/04/13 08:35:30;;;;;;;9.70;8.53;;;12.80;43.50;;;;;;5036500;28;20439;-88
2021/04/13 08:38:21;;;;;;;12.33;8.63;;;11.90;44.40;;;;;;5021955;28;20450;-89
2021/04/13 08:41:13;;;;;;;10.63;7.95;;;10.80;45.80;;;;;;4779625;28;10000648;-88
2021/04/13 08:43:55;;;;;;;12.52;7.63;;;10.10;47.30;;;;;;5013613;28;20408;-90
2021/04/13 08:46:39;;;;;;;7.20;6.20;;;9.60;49.20;;;;;;5015568;28;20212;-88
2021/04/13 08:49:25;;;;;;;8.48;6.50;;;9.40;50.30;;;;;;5016857;28;20651;-87
2021/04/13 08:52:15;;;;;;;12.90;7.90;;;9.50;49.70;;;;;;5027432;28;20204;-90
2021/04/13 08:54:44;;;;;;;7.32;6.40;;;9.40;50.50;;;;;;5032053;28;20514;-85
2021/04/13 08:57:19;;;;;;;13.98;5.85;;;9.40;50.30;;;;;;5024115;28;20286;-87
2021/04/13 08:59:50;;;;;;;11.23;5.10;;;9.50;49.90;;;;;;5034518;28;20175;-89
2021/04/13 09:02:24;;;;;;;10.23;4.40;;;9.50;49.40;;;;;;5033754;28;20175;-89
2021/04/13 09:05:25;;;;;;;8.75;3.08;;;9.90;49.10;;;;;;5033747;28;20315;-88
2021/04/13 09:08:11;;;;;;;10.90;3.50;;;11.80;45.00;;;;;;5022677;28;20210;-89
2021/04/13 09:11:04;;;;;;;5.63;3.30;;;13.20;43.40;;;;;;5035723;28;20477;-88
2021/04/13 09:13:40;;;;;;;2.17;1.60;;;13.70;40.60;;;;;;5037718;28;20426;-88
2021/04/13 09:16:05;;;;;;;4.43;1.77;;;13.20;38.60;;;;;;5035361;28;20761;-87
2021/04/13 09:18:55;;;;;;;2.43;1.70;;;11.60;40.40;;;;;;5035980;28;20480;-87
2021/04/13 09:21:25;;;;;;;8.60;2.77;;;11.50;40.70;;;;;;5034043;28;20206;-89
2021/04/13 09:24:12;;;;;;;3.50;2.03;;;10.70;41.40;;;;;;5033247;28;20504;-86
2021/04/13 09:26:43;;;;;;;9.47;2.20;;;10.40;43.00;;;;;;5033920;28;20462;-90
2021/04/13 09:29:30;;;;;;;10.03;1.80;;;10.60;43.20;;;;;;5032972;28;20430;-88
2021/04/13 09:31:57;;;;;;;9.07;1.87;;;10.70;42.20;;;;;;5034600;28;20559;-87
2021/04/13 09:34:43;;;;;;;5.45;2.05;;;10.50;41.80;;;;;;5034850;28;20480;-88
2021/04/13 09:37:31;;;;;;;2.80;2.00;;;10.40;42.60;;;;;;5033913;28;20180;-89
2021/04/13 09:40:22;;;;;;;7.37;2.20;;;10.50;42.60;;;;;;5035307;28;20438;-87
2021/04/13 09:43:00;;;;;;;4.73;1.87;;;11.10;43.00;;;;;;5039409;28;20822;-87
2021/04/13 09:45:52;;;;;;;5.73;2.50;;;12.50;40.80;;;;;;5033439;28;20425;-87
2021/04/13 09:48:45;;;;;;;3.87;2.60;;;14.00;38.30;;;;;;5019678;28;20422;-87
2021/04/13 09:51:21;;;;;;;4.40;2.23;;;15.40;34.10;;;;;;5036699;28;20474;-89
2021/04/13 09:54:05;;;;;;;6.33;3.17;;;16.90;31.70;;;;;;5030634;28;20833;-87
2021/04/13 09:56:54;;;;;;;4.53;2.70;;;17.70;30.10;;;;;;5034342;28;20411;-85
2021/04/13 09:59:45;;;;;;;4.80;3.80;;;17.50;29.50;;;;;;5032805;28;20913;-88
2021/04/13 10:02:20;;;;;;;2.90;2.70;;;16.80;29.10;;;;;;5034010;28;20423;-88
2021/04/13 10:05:02;;;;;;;5.20;3.03;;;17.00;29.10;;;;;;5033262;28;20948;-87
2021/04/13 10:07:29;;;;;;;2.30;2.10;;;17.20;29.40;;;;;;5032379;28;20449;-89
2021/04/13 10:09:58;;;;;;;3.60;3.17;;;17.10;29.10;;;;;;5033536;28;20411;-90
2021/04/13 10:12:51;;;;;;;4.70;3.37;;;17.40;29.00;;;;;;5034544;28;20980;-87
2021/04/13 10:15:43;;;;;;;3.00;2.40;;;17.30;29.00;;;;;;5032305;28;20948;-88
2021/04/13 10:18:46;;;;;;;2.73;2.30;;;17.60;28.70;;;;;;5034646;28;20834;-89
2021/04/13 10:21:32;;;;;;;5.40;2.60;;;16.90;29.00;;;;;;5032901;28;20414;-88
2021/04/13 10:24:37;;;;;;;3.10;2.80;;;17.60;29.20;;;;;;5034587;28;20446;-87
2021/04/13 10:27:35;;;;;;;3.70;1.77;;;17.70;28.20;;;;;;5033430;28;20419;-86
2021/04/13 10:30:34;;;;;;;5.97;2.80;;;17.50;28.30;;;;;;5035598;28;21071;-89
2021/04/13 10:33:05;;;;;;;2.83;1.90;;;18.10;28.50;;;;;;4684857;28;10000326;-87
2021/04/13 10:35:53;;;;;;;5.93;4.20;;;19.10;27.60;;;;;;5033356;28;20395;-90
2021/04/13 10:38:37;;;;;;;1.37;1.27;;;19.90;25.80;;;;;;5033963;28;20186;-89
2021/04/13 10:41:24;;;;;;;1.67;1.50;;;20.50;25.50;;;;;;5026905;28;20794;-89
2021/04/13 10:44:26;;;;;;;2.57;1.77;;;20.50;26.00;;;;;;5021519;28;20431;-89
2021/04/13 10:47:03;;;;;;;2.73;1.80;;;20.40;25.80;;;;;;5024187;28;20422;-87
2021/04/13 10:49:54;;;;;;;2.67;2.47;;;18.50;26.70;;;;;;5032931;28;20399;-86
2021/04/13 10:52:27;;;;;;;4.70;1.70;;;17.10;27.20;;;;;;5045095;28;20466;-89
2021/04/13 10:55:15;;;;;;;8.30;2.37;;;15.20;27.20;;;;;;5051491;28;20462;-87
2021/04/13 10:58:18;;;;;;;6.03;2.30;;;14.20;27.60;;;;;;5039975;28;20472;-91
2021/04/13 11:01:21;;;;;;;3.43;2.47;;;14.00;28.90;;;;;;5043487;28;20425;-87
2021/04/13 11:04:11;;;;;;;2.17;2.07;;;15.30;28.30;;;;;;5045076;28;20544;-90
2021/04/13 11:06:36;;;;;;;5.20;2.00;;;15.00;28.50;;;;;;5041432;28;20425;-88
2021/04/13 11:09:46;;;;;;;2.50;2.30;;;15.30;27.60;;;;;;5041212;28;20426;-89
2021/04/13 11:12:40;;;;;;;2.73;1.50;;;16.10;27.40;;;;;;5044881;28;20651;-90
2021/04/13 11:15:35;;;;;;;2.10;1.63;;;17.70;26.80;;;;;;5041737;28;20439;-89
2021/04/13 11:18:19;;;;;;;2.93;2.20;;;19.80;26.20;;;;;;5044465;28;20418;-91
2021/04/13 11:20:59;;;;;;;2.10;1.80;;;20.30;25.50;;;;;;5048236;28;20445;-89
2021/04/13 11:23:53;;;;;;;2.13;1.70;;;19.50;24.90;;;;;;5041289;28;20508;-91
2021/04/13 11:26:44;;;;;;;1.80;1.30;;;18.70;24.60;;;;;;5043253;28;20437;-88
2021/04/13 11:29:43;;;;;;;5.13;1.80;;;17.80;25.20;;;;;;5043216;28;20419;-91
2021/04/13 11:32:43;;;;;;;2.83;1.90;;;17.90;25.70;;;;;;5045747;28;20474;-90
2021/04/13 11:35:35;;;;;;;12.03;1.77;;;18.90;25.00;;;;;;5039626;28;20436;-91
2021/04/13 11:38:39;;;;;;;1.70;1.60;;;18.90;24.70;;;;;;5050394;28;20447;-88
2021/04/13 11:41:36;;;;;;;1.83;1.60;;;17.50;25.40;;;;;;5049003;28;20485;-87
2021/04/13 11:44:19;;;;;;;2.90;1.60;;;17.90;26.70;;;;;;5052203;28;20438;-88
2021/04/13 11:47:11;;;;;;;1.50;1.50;;;13.40;25.80;;;;;;5049416;28;20406;-89
2021/04/13 11:50:45;;;;;;;4.50;1.77;;;17.20;27.30;;;;;;5053557;28;20429;-88
2021/04/13 11:53:42;;;;;;;2.10;1.93;;;15.60;25.80;;;;;;5053405;28;20489;-89
2021/04/13 11:56:34;;;;;;;3.03;2.00;;;15.10;26.20;;;;;;5054898;28;20441;-89
2021/04/13 11:59:12;;;;;;;2.00;1.80;;;16.30;27.80;;;;;;5035104;28;20418;-89
2021/04/13 12:01:50;;;;;;;3.03;1.53;;;16.70;29.60;;;;;;5048989;28;20415;-87
2021/04/13 12:04:40;;;;;;;1.47;1.37;;;16.30;26.40;;;;;;5047394;28;20454;-91
2021/04/13 12:07:09;;;;;;;2.23;2.00;;;19.20;26.50;;;;;;5042852;28;20407;-90
2021/04/13 12:09:48;;;;;;;1.73;1.23;;;16.70;25.00;;;;;;5042725;28;20419;-89
2021/04/13 12:12:34;;;;;;;2.03;1.83;;;18.10;24.30;;;;;;5047620;28;20458;-90
2021/04/13 12:15:05;;;;;;;1.90;1.50;;;18.60;24.50;;;;;;5044081;28;20445;-91
2021/04/13 12:17:36;;;;;;;1.70;1.70;;;18.90;26.50;;;;;;5042390;28;20494;-91
2021/04/13 12:20:27;;;;;;;1.40;1.40;;;19.90;23.60;;;;;;5044701;28;20399;-90
2021/04/13 12:23:08;;;;;;;1.90;1.60;;;20.20;23.60;;;;;;5046530;28;20423;-91
2021/04/13 12:25:40;;;;;;;4.90;2.03;;;19.00;24.40;;;;;;5045212;28;20501;-91
2021/04/13 12:28:08;;;;;;;2.63;2.13;;;19.20;26.30;;;;;;5042773;28;20493;-88
2021/04/13 12:30:48;;;;;;;3.47;1.93;;;18.10;27.30;;;;;;5051227;28;20418;-89
2021/04/13 12:33:35;;;;;;;2.07;1.80;;;15.60;26.20;;;;;;5048741;28;20414;-89
2021/04/13 12:36:07;;;;;;;1.50;1.40;;;15.00;27.20;;;;;;5039825;28;20443;-89
2021/04/13 12:38:43;;;;;;;1.63;1.37;;;16.70;26.10;;;;;;5037804;28;20510;-91
2021/04/13 12:41:30;;;;;;;0.87;0.87;;;17.50;25.60;;;;;;5036909;28;20472;-90
2021/04/13 12:44:00;;;;;;;1.90;1.30;;;19.00;23.60;;;;;;5040643;28;20443;-91
2021/04/13 12:46:32;;;;;;;1.27;1.03;;;19.70;22.20;;;;;;5040834;28;20441;-90
2021/04/13 12:49:18;;;;;;;1.13;1.10;;;19.30;22.30;;;;;;5040617;28;20425;-90
2021/04/13 12:52:18;;;;;;;2.73;1.00;;;19.40;22.10;;;;;;5039514;28;20935;-90
2021/04/13 12:54:47;;;;;;;2.73;1.27;;;16.70;21.80;;;;;;5041172;28;20953;-90
2021/04/13 12:57:22;;;;;;;3.77;1.80;;;19.10;24.10;;;;;;5044988;28;20449;-90
2021/04/13 12:59:50;;;;;;;2.17;1.50;;;18.40;23.80;;;;;;5043746;28;20446;-90
2021/04/13 13:02:34;;;;;;;0.90;0.90;;;19.30;22.50;;;;;;5043882;28;20442;-89
2021/04/13 13:05:01;;;;;;;1.30;1.30;;;20.10;21.80;;;;;;5045855;28;20526;-90
2021/04/13 13:07:30;;;;;;;0.90;0.90;;;19.50;21.00;;;;;;5043991;28;20510;-87
2021/04/13 13:10:06;;;;;;;1.00;0.97;;;19.60;21.10;;;;;;5046583;28;20401;-88
2021/04/13 13:12:35;;;;;;;2.30;1.27;;;20.00;21.40;;;;;;5043617;28;20492;-89
2021/04/13 13:15:06;;;;;;;2.00;1.33;;;20.20;22.00;;;;;;5044272;28;20886;-89
2021/04/13 13:17:36;;;;;;;0.90;0.90;;;20.20;21.60;;;;;;5024799;28;20506;-89
2021/04/13 13:20:04;;;;;;;1.40;1.40;;;20.20;20.70;;;;;;5038915;28;20453;-90
2021/04/13 13:22:32;;;;;;;1.47;1.17;;;19.70;21.10;;;;;;5040022;28;20461;-90
2021/04/13 13:25:14;;;;;;;1.23;1.23;;;21.30;22.30;;;;;;5044052;28;20522;-86
2021/04/13 13:27:39;;;;;;;1.90;1.60;;;21.70;22.80;;;;;;5054359;28;20450;-87
2021/04/13 13:30:09;;;;;;;1.80;1.70;;;21.70;24.10;;;;;;5039317;28;20437;-87
2021/04/13 13:32:36;;;;;;;1.40;1.40;;;19.00;20.70;;;;;;5030801;28;20221;-88
2021/04/13 13:35:07;;;;;;;1.40;1.30;;;17.60;19.80;;;;;;5031318;28;20419;-88
2021/04/13 13:37:36;;;;;;;1.97;1.70;;;19.30;21.30;;;;;;5034045;28;20426;-89
2021/04/13 13:40:11;;;;;;;4.30;1.60;;;20.00;22.10;;;;;;5038483;28;20399;-86
2021/04/13 13:42:39;;;;;;;2.43;1.20;;;20.70;22.00;;;;;;5034687;28;20422;-88
2021/04/13 13:45:08;;;;;;;1.40;1.30;;;20.60;22.30;;;;;;5034867;28;20414;-85
2021/04/13 13:47:38;;;;;;;1.20;1.20;;;20.70;21.50;;;;;;5030445;28;20464;-84